createdAt,value
2018-12-24T00:00:34.499Z,16.70
2018-12-24T00:03:01.987Z,15.03
2018-12-24T00:05:29.309Z,14.40
2018-12-24T00:07:57.686Z,15.28
2018-12-24T00:10:24.810Z,18.42
2018-12-24T00:12:52.495Z,11.18
2018-12-24T00:15:19.861Z,14.30
2018-12-24T00:17:47.924Z,16.15
2018-12-24T00:20:15.586Z,14.90
2018-12-24T00:22:43.243Z,14.35
2018-12-24T00:25:10.255Z,12.95
2018-12-24T00:27:37.290Z,13.88
2018-12-24T00:30:06.740Z,11.75
2018-12-24T00:32:34.414Z,8.88
2018-12-24T00:35:02.081Z,13.15
2018-12-24T00:37:30.142Z,13.72
2018-12-24T00:39:57.497Z,11.48
2018-12-24T00:42:25.150Z,7.62
2018-12-24T00:44:52.170Z,12.65
2018-12-24T00:47:19.652Z,10.40
2018-12-24T00:49:48.185Z,11.85
2018-12-24T00:52:15.490Z,16.05
2018-12-24T00:54:42.872Z,10.72
2018-12-24T00:57:13.430Z,8.70
2018-12-24T00:59:42.024Z,7.45
2018-12-24T01:02:10.027Z,8.90
2018-12-24T01:04:37.894Z,9.53
2018-12-24T01:07:05.145Z,6.55
2018-12-24T01:09:32.504Z,6.97
2018-12-24T01:12:00.268Z,11.48
2018-12-24T01:14:28.950Z,5.67
2018-12-24T01:16:56.569Z,6.45
2018-12-24T01:19:23.965Z,6.70
2018-12-24T01:21:50.968Z,7.47
2018-12-24T01:24:18.574Z,5.35
2018-12-24T01:26:45.594Z,7.03
2018-12-24T01:29:12.875Z,6.33
2018-12-24T01:31:40.226Z,5.05
2018-12-24T01:34:07.622Z,8.15
2018-12-24T01:36:34.936Z,5.25
2018-12-24T01:39:04.642Z,6.05
2018-12-24T01:41:33.330Z,6.90
2018-12-24T01:44:00.709Z,4.37
2018-12-24T01:46:28.051Z,9.13
2018-12-24T01:48:55.071Z,8.10
2018-12-24T01:51:22.447Z,9.73
2018-12-24T01:53:50.106Z,9.43
2018-12-24T01:56:17.763Z,8.15
2018-12-24T01:58:45.424Z,5.97
2018-12-24T02:01:12.457Z,8.18
2018-12-24T02:03:39.707Z,9.43
2018-12-24T02:06:06.975Z,5.67
2018-12-24T02:08:34.337Z,5.67
2018-12-24T02:11:01.686Z,4.90
2018-12-24T02:13:28.694Z,4.12
2018-12-24T02:15:55.983Z,4.65
2018-12-24T02:18:23.465Z,2.47
2018-12-24T02:20:51.116Z,5.33
2018-12-24T02:23:18.869Z,3.83
2018-12-24T02:25:46.250Z,4.20
2018-12-24T02:28:13.886Z,2.85
2018-12-24T02:30:40.895Z,2.37
2018-12-24T02:33:08.183Z,3.87
2018-12-24T02:35:35.967Z,2.10
2018-12-24T02:38:03.958Z,7.03
2018-12-24T02:40:31.372Z,2.90
2018-12-24T02:42:58.738Z,3.08
2018-12-24T02:45:26.389Z,2.55
2018-12-24T02:47:53.746Z,2.87
2018-12-24T02:50:21.104Z,3.83
2018-12-24T02:52:48.452Z,3.40
2018-12-24T02:55:16.214Z,2.30
2018-12-24T02:57:43.500Z,2.27
2018-12-24T03:00:10.922Z,2.45
2018-12-24T03:02:39.008Z,2.35
2018-12-24T03:05:06.003Z,2.67
2018-12-24T03:07:33.703Z,3.25
2018-12-24T03:10:01.477Z,2.60
2018-12-24T03:12:28.833Z,2.65
2018-12-24T03:14:56.174Z,5.58
2018-12-24T03:17:23.531Z,3.27
2018-12-24T03:19:51.491Z,4.92
2018-12-24T03:22:18.855Z,4.85
2018-12-24T03:24:46.822Z,4.17
2018-12-24T03:27:15.718Z,3.25
2018-12-24T03:29:43.379Z,3.80
2018-12-24T03:32:10.445Z,5.20
2018-12-24T03:34:38.086Z,3.52
2018-12-24T03:37:05.645Z,3.00
2018-12-24T03:39:35.146Z,3.05
2018-12-24T03:42:05.847Z,2.40
2018-12-24T03:44:33.754Z,2.08
2018-12-24T03:47:01.109Z,3.55
2018-12-24T03:49:28.977Z,3.30
2018-12-24T03:51:56.635Z,4.35
2018-12-24T03:54:24.300Z,4.10
2018-12-24T03:56:53.086Z,3.25
2018-12-24T03:59:20.747Z,3.90
2018-12-24T04:01:48.402Z,3.25
2018-12-24T04:04:15.759Z,2.60
2018-12-24T04:06:43.141Z,6.22
2018-12-24T04:09:15.211Z,3.87
2018-12-24T04:11:42.536Z,3.33
2018-12-24T04:14:09.925Z,5.20
2018-12-24T04:16:37.550Z,4.55
2018-12-24T04:19:05.462Z,3.35
2018-12-24T04:21:33.597Z,4.42
2018-12-24T04:24:01.651Z,3.27
2018-12-24T04:26:29.831Z,5.00
2018-12-24T04:28:57.799Z,2.95
2018-12-24T04:31:25.181Z,4.15
2018-12-24T04:33:52.606Z,10.43
2018-12-24T04:36:19.618Z,4.05
2018-12-24T04:38:47.600Z,4.40
2018-12-24T04:41:15.804Z,6.40
2018-12-24T04:43:43.151Z,5.53
2018-12-24T04:46:10.192Z,7.75
2018-12-24T04:48:37.967Z,7.75
2018-12-24T04:51:04.978Z,7.83
2018-12-24T04:53:32.879Z,6.78
2018-12-24T04:56:00.855Z,5.50
2018-12-24T04:58:29.334Z,7.20
2018-12-24T05:00:56.994Z,6.12
2018-12-24T05:03:24.350Z,7.60
2018-12-24T05:05:52.005Z,7.75
2018-12-24T05:08:19.806Z,6.25
2018-12-24T05:10:47.544Z,6.90
2018-12-24T05:13:15.934Z,7.58
2018-12-24T05:15:44.146Z,7.20
2018-12-24T05:18:11.755Z,7.80
2018-12-24T05:20:39.481Z,9.85
2018-12-24T05:23:07.267Z,8.48
2018-12-24T05:25:34.661Z,8.33
2018-12-24T05:28:02.295Z,6.20
2018-12-24T05:30:30.267Z,9.00
2018-12-24T05:32:57.618Z,8.00
2018-12-24T05:35:25.037Z,10.20
2018-12-24T05:37:52.735Z,9.80
2018-12-24T05:40:20.399Z,8.28
2018-12-24T05:42:49.392Z,11.35
2018-12-24T05:45:17.358Z,9.15
2018-12-24T05:47:45.299Z,8.75
2018-12-24T05:50:12.307Z,13.00
2018-12-24T05:52:40.503Z,8.33
2018-12-24T05:55:08.519Z,10.10
2018-12-24T05:57:36.633Z,10.03
2018-12-24T06:00:04.862Z,7.97
2018-12-24T06:02:32.802Z,8.53
2018-12-24T06:05:00.162Z,7.80
2018-12-24T06:07:30.203Z,9.85
2018-12-24T06:09:57.866Z,7.80
2018-12-24T06:12:25.850Z,9.95
2018-12-24T06:14:53.498Z,9.60
2018-12-24T06:17:20.874Z,11.30
2018-12-24T06:19:48.819Z,10.10
2018-12-24T06:22:16.471Z,9.60
2018-12-24T06:24:44.554Z,9.25
2018-12-24T06:27:12.521Z,11.75
2018-12-24T06:29:40.186Z,11.88
2018-12-24T06:32:07.187Z,10.32
2018-12-24T06:34:34.791Z,9.00
2018-12-24T06:37:02.454Z,12.98
2018-12-24T06:39:30.337Z,11.33
2018-12-24T06:41:58.232Z,11.78
2018-12-24T06:44:25.847Z,11.30
2018-12-24T06:46:53.203Z,9.70
2018-12-24T06:49:20.871Z,13.40
2018-12-24T06:51:49.750Z,15.35
2018-12-24T06:54:17.723Z,14.47
2018-12-24T06:56:45.930Z,14.55
2018-12-24T06:59:13.555Z,14.50
2018-12-24T07:01:40.933Z,16.93
2018-12-24T07:04:08.570Z,15.58
2018-12-24T07:06:35.574Z,12.85
2018-12-24T07:09:04.408Z,12.63
2018-12-24T07:11:32.401Z,14.10
2018-12-24T07:14:00.350Z,11.93
2018-12-24T07:16:27.710Z,14.98
2018-12-24T07:18:55.777Z,16.67
2018-12-24T07:21:26.712Z,16.35
2018-12-24T07:23:53.998Z,16.32
2018-12-24T07:26:21.934Z,14.00
2018-12-24T07:28:58.753Z,18.40
2018-12-24T07:31:20.439Z,15.38
2018-12-24T07:33:48.094Z,14.68
2018-12-24T07:36:16.979Z,13.40
2018-12-24T07:38:44.947Z,13.93
2018-12-24T07:41:11.958Z,15.72
2018-12-24T07:43:39.662Z,16.30
2018-12-24T07:46:07.320Z,13.20
2018-12-24T07:48:35.258Z,19.17
2018-12-24T07:51:02.951Z,16.32
2018-12-24T07:53:31.635Z,17.92
2018-12-24T07:55:58.990Z,19.12
2018-12-24T07:58:26.652Z,17.05
2018-12-24T08:00:54.311Z,14.35
2018-12-24T08:03:23.310Z,13.50
2018-12-24T08:05:50.677Z,16.62
2018-12-24T08:08:18.043Z,17.32
2018-12-24T08:10:45.678Z,15.60
2018-12-24T08:13:12.706Z,15.40
2018-12-24T08:15:40.693Z,16.62
2018-12-24T08:18:08.969Z,16.35
2018-12-24T08:20:36.310Z,15.35
2018-12-24T08:23:03.981Z,18.70
2018-12-24T08:25:31.949Z,17.98
2018-12-24T08:27:59.319Z,16.07
2018-12-24T08:30:26.342Z,14.20
2018-12-24T08:32:53.854Z,18.55
2018-12-24T08:35:22.686Z,17.77
2018-12-24T08:37:50.565Z,13.83
2018-12-24T08:40:17.927Z,15.78
2018-12-24T08:42:46.711Z,15.00
2018-12-24T08:45:14.361Z,22.05
2018-12-24T08:47:41.725Z,19.25
2018-12-24T08:50:09.386Z,20.92
2018-12-24T08:52:37.050Z,19.48
2018-12-24T08:55:04.710Z,20.05
2018-12-24T08:57:32.066Z,18.27
2018-12-24T08:59:59.426Z,16.50
2018-12-24T09:02:27.094Z,15.72
2018-12-24T09:04:55.051Z,15.23
2018-12-24T09:07:22.710Z,15.85
2018-12-24T09:09:50.166Z,16.67
2018-12-24T09:12:17.500Z,15.53
2018-12-24T09:14:50.185Z,12.00
2018-12-24T09:17:14.691Z,18.48
2018-12-24T09:19:42.658Z,16.60
2018-12-24T09:22:10.010Z,16.35
2018-12-24T09:24:37.682Z,12.05
2018-12-24T09:27:05.018Z,15.28
2018-12-24T09:29:32.791Z,14.03
2018-12-24T09:32:00.455Z,13.48
2018-12-24T09:34:27.806Z,16.07
2018-12-24T09:36:55.471Z,15.50
2018-12-24T09:39:23.279Z,14.45
2018-12-24T09:41:50.897Z,11.75
2018-12-24T09:44:18.822Z,12.00
2018-12-24T09:46:46.121Z,10.82
2018-12-24T09:49:13.477Z,12.13
2018-12-24T09:51:40.498Z,12.45
2018-12-24T09:54:07.879Z,9.03
2018-12-24T09:56:35.637Z,8.48
2018-12-24T09:59:02.991Z,10.82
2018-12-24T10:01:30.651Z,11.97
2018-12-24T10:04:03.020Z,14.13
2018-12-24T10:06:34.537Z,11.88
2018-12-24T10:09:07.110Z,10.38
2018-12-24T10:11:34.407Z,12.60
2018-12-24T10:14:01.426Z,15.50
2018-12-24T10:16:29.290Z,11.80
2018-12-24T10:18:56.570Z,16.57
2018-12-24T10:21:23.621Z,11.50
2018-12-24T10:23:50.982Z,9.73
2018-12-24T10:26:18.012Z,12.43
2018-12-24T10:28:45.074Z,9.83
2018-12-24T10:31:12.830Z,12.25
2018-12-24T10:33:40.800Z,9.75
2018-12-24T10:36:08.155Z,11.20
2018-12-24T10:38:35.563Z,10.88
2018-12-24T10:41:08.087Z,12.82
2018-12-24T10:43:35.470Z,10.88
2018-12-24T10:46:02.815Z,9.38
2018-12-24T10:48:30.152Z,13.08
2018-12-24T10:50:57.182Z,9.68
2018-12-24T10:53:25.471Z,11.28
2018-12-24T10:55:52.836Z,9.40
2018-12-24T10:58:20.822Z,9.65
2018-12-24T11:00:48.150Z,9.85
2018-12-24T11:03:16.121Z,14.35
2018-12-24T11:05:45.111Z,10.55
2018-12-24T11:08:12.134Z,8.23
2018-12-24T11:10:40.127Z,10.43
2018-12-24T11:13:08.215Z,8.73
2018-12-24T11:15:35.838Z,10.58
2018-12-24T11:18:03.626Z,9.28
2018-12-24T11:20:31.285Z,9.10
2018-12-24T11:22:59.054Z,10.95
2018-12-24T11:25:26.438Z,8.15
2018-12-24T11:27:53.759Z,10.90
2018-12-24T11:30:22.040Z,8.68
2018-12-24T11:32:49.694Z,9.73
2018-12-24T11:35:17.662Z,8.78
2018-12-24T11:37:45.978Z,9.18
2018-12-24T11:40:13.538Z,7.80
2018-12-24T11:42:41.162Z,8.73
2018-12-24T11:45:10.155Z,9.05
2018-12-24T11:47:37.509Z,10.72
2018-12-24T11:50:05.278Z,10.80
2018-12-24T11:52:32.650Z,9.80
2018-12-24T11:54:59.981Z,7.83
2018-12-24T11:57:27.950Z,8.30
2018-12-24T11:59:54.968Z,7.85
2018-12-24T12:02:22.287Z,7.12
2018-12-24T12:04:50.219Z,10.23
2018-12-24T12:07:18.190Z,10.80
2018-12-24T12:09:46.190Z,8.50
2018-12-24T12:12:13.547Z,6.70
2018-12-24T12:14:40.867Z,9.85
2018-12-24T12:17:08.527Z,8.55
2018-12-24T12:19:35.904Z,5.55
2018-12-24T12:22:03.338Z,6.22
2018-12-24T12:24:30.718Z,8.70
2018-12-24T12:26:58.045Z,7.80
2018-12-24T12:29:25.090Z,6.65
2018-12-24T12:31:52.474Z,9.68
2018-12-24T12:34:20.111Z,8.55
2018-12-24T12:36:47.570Z,8.43
2018-12-24T12:39:15.234Z,6.85
2018-12-24T12:41:42.581Z,5.95
2018-12-24T12:44:10.335Z,6.42
2018-12-24T12:46:38.008Z,6.95
2018-12-24T12:49:05.372Z,6.65
2018-12-24T12:51:33.534Z,9.10
2018-12-24T12:54:00.567Z,19.65
2018-12-24T12:56:27.938Z,13.75
2018-12-24T12:58:55.602Z,9.00
2018-12-24T13:01:23.263Z,8.33
2018-12-24T13:03:50.666Z,14.75
2018-12-24T13:06:17.694Z,6.87
2018-12-24T13:08:45.014Z,10.85
2018-12-24T13:11:12.395Z,6.95
2018-12-24T13:13:39.769Z,4.67
2018-12-24T13:16:06.791Z,6.20
2018-12-24T13:18:33.865Z,8.35
2018-12-24T13:21:01.484Z,7.58
2018-12-24T13:23:29.251Z,7.87
2018-12-24T13:25:56.603Z,7.70
2018-12-24T13:28:24.261Z,5.78
2018-12-24T13:30:51.940Z,8.00
2018-12-24T13:33:19.900Z,8.48
2018-12-24T13:35:46.921Z,6.15
2018-12-24T13:38:14.909Z,5.80
2018-12-24T13:40:42.570Z,5.90
2018-12-24T13:43:10.335Z,7.25
2018-12-24T13:45:38.302Z,4.85
2018-12-24T13:48:06.782Z,6.45
2018-12-24T13:50:34.546Z,6.70
2018-12-24T13:53:02.210Z,7.50
2018-12-24T13:55:29.561Z,6.20
2018-12-24T13:57:57.315Z,12.33
2018-12-24T14:00:24.781Z,6.70
2018-12-24T14:02:52.170Z,5.60
2018-12-24T14:05:19.621Z,8.03
2018-12-24T14:07:46.951Z,12.23
2018-12-24T14:10:14.310Z,5.12
2018-12-24T14:12:41.706Z,7.22
2018-12-24T14:15:09.325Z,6.15
2018-12-24T14:17:37.391Z,8.48
2018-12-24T14:20:05.567Z,6.05
2018-12-24T14:22:33.485Z,4.83
2018-12-24T14:25:00.891Z,7.55
2018-12-24T14:27:28.650Z,8.08
2018-12-24T14:29:56.012Z,9.05
2018-12-24T14:32:23.671Z,5.95
2018-12-24T14:34:51.433Z,7.50
2018-12-24T14:37:19.198Z,7.50
2018-12-24T14:39:46.789Z,7.03
2018-12-24T14:42:14.110Z,6.97
2018-12-24T14:44:42.285Z,9.13
2018-12-24T14:47:11.062Z,5.08
2018-12-24T14:49:38.791Z,10.80
2018-12-24T14:52:06.806Z,7.45
2018-12-24T14:54:34.775Z,3.12
2018-12-24T14:57:02.537Z,4.03
2018-12-24T14:59:29.898Z,5.62
2018-12-24T15:01:57.556Z,8.23
2018-12-24T15:04:25.219Z,6.87
2018-12-24T15:06:52.971Z,3.92
2018-12-24T15:09:20.334Z,6.42
2018-12-24T15:11:47.727Z,3.05
2018-12-24T15:14:15.043Z,5.30
2018-12-24T15:16:42.499Z,11.95
2018-12-24T15:19:09.860Z,11.63
2018-12-24T15:21:36.875Z,12.90
2018-12-24T15:24:04.260Z,8.90
2018-12-24T15:26:32.532Z,7.75
2018-12-24T15:29:01.419Z,11.73
2018-12-24T15:31:29.189Z,4.85
2018-12-24T15:33:56.538Z,8.03
2018-12-24T15:36:23.901Z,6.53
2018-12-24T15:38:51.554Z,6.35
2018-12-24T15:41:19.522Z,5.28
2018-12-24T15:43:58.538Z,8.28
2018-12-24T15:46:26.216Z,5.85
2018-12-24T15:48:53.259Z,16.20
2018-12-24T15:51:20.928Z,6.72
2018-12-24T15:53:48.558Z,9.08
2018-12-24T15:56:16.441Z,10.00
2018-12-24T15:58:44.727Z,3.75
2018-12-24T16:01:12.320Z,8.05
2018-12-24T16:03:40.790Z,5.62
2018-12-24T16:06:08.537Z,4.28
2018-12-24T16:08:35.930Z,9.05
2018-12-24T16:11:03.550Z,7.28
2018-12-24T16:13:30.585Z,6.95
2018-12-24T16:15:58.362Z,7.03
2018-12-24T16:18:26.018Z,15.25
2018-12-24T16:20:53.789Z,12.35
2018-12-24T16:23:21.502Z,5.12
2018-12-24T16:25:49.382Z,7.33
2018-12-24T16:28:17.178Z,10.23
2018-12-24T16:30:45.151Z,11.53
2018-12-24T16:33:13.123Z,6.03
2018-12-24T16:35:40.766Z,7.60
2018-12-24T16:38:08.458Z,7.87
2018-12-24T16:40:35.478Z,6.20
2018-12-24T16:43:03.658Z,7.30
2018-12-24T16:45:31.050Z,6.80
2018-12-24T16:47:58.676Z,7.97
2018-12-24T16:50:26.031Z,10.28
2018-12-24T16:52:53.999Z,14.60
2018-12-24T16:55:22.069Z,9.90
2018-12-24T16:57:49.993Z,5.15
2018-12-24T17:00:17.802Z,12.20
2018-12-24T17:02:46.764Z,8.98
2018-12-24T17:05:14.666Z,8.25
2018-12-24T17:07:42.844Z,9.85
2018-12-24T17:10:11.417Z,7.90
2018-12-24T17:12:39.491Z,9.00
2018-12-24T17:15:06.846Z,5.95
2018-12-24T17:17:34.699Z,12.75
2018-12-24T17:20:02.346Z,5.58
2018-12-24T17:22:30.139Z,14.98
2018-12-24T17:24:57.801Z,10.95
2018-12-24T17:27:25.451Z,7.97
2018-12-24T17:29:52.814Z,5.17
2018-12-24T17:32:20.574Z,4.62
2018-12-24T17:34:48.258Z,11.08
2018-12-24T17:37:16.217Z,8.70
2018-12-24T17:39:43.583Z,5.45
2018-12-24T17:42:11.837Z,7.92
2018-12-24T17:44:39.195Z,3.98
2018-12-24T17:47:06.239Z,11.50
2018-12-24T17:49:34.929Z,9.30
2018-12-24T17:52:02.598Z,15.85
2018-12-24T17:54:29.634Z,11.15
2018-12-24T17:56:57.009Z,7.12
2018-12-24T17:59:24.391Z,9.93
2018-12-24T18:01:51.999Z,6.03
2018-12-24T18:04:19.979Z,15.20
2018-12-24T18:06:51.737Z,9.65
2018-12-24T18:09:19.089Z,8.05
2018-12-24T18:11:46.750Z,12.07
2018-12-24T18:14:14.679Z,9.78
2018-12-24T18:16:42.074Z,12.15
2018-12-24T18:19:09.734Z,9.13
2018-12-24T18:21:37.809Z,16.07
2018-12-24T18:24:05.160Z,11.88
2018-12-24T18:26:32.925Z,13.08
2018-12-24T18:29:00.285Z,11.90
2018-12-24T18:31:28.249Z,9.85
2018-12-24T18:33:55.906Z,14.73
2018-12-24T18:36:23.671Z,9.98
2018-12-24T18:38:50.711Z,12.78
2018-12-24T18:41:18.787Z,9.95
2018-12-24T18:43:46.554Z,10.43
2018-12-24T18:46:13.906Z,8.03
2018-12-24T18:48:41.261Z,8.38
2018-12-24T18:51:08.664Z,15.85
2018-12-24T18:53:36.275Z,12.82
2018-12-24T18:56:03.316Z,10.98
2018-12-24T18:58:31.297Z,8.55
2018-12-24T19:00:59.263Z,11.70
2018-12-24T19:03:26.783Z,10.38
2018-12-24T19:05:54.485Z,9.20
2018-12-24T19:08:22.553Z,11.18
2018-12-24T19:10:49.602Z,10.28
2018-12-24T19:13:17.467Z,6.55
2018-12-24T19:15:45.408Z,7.00
2018-12-24T19:18:13.202Z,10.43
2018-12-24T19:20:41.276Z,5.92
2018-12-24T19:23:08.627Z,7.03
2018-12-24T19:25:36.285Z,6.03
2018-12-24T19:28:03.637Z,3.90
2018-12-24T19:30:30.998Z,5.87
2018-12-24T19:32:58.963Z,5.97
2018-12-24T19:35:26.931Z,12.78
2018-12-24T19:37:54.289Z,5.53
2018-12-24T19:40:21.317Z,4.62
2018-12-24T19:42:48.987Z,7.67
2018-12-24T19:45:16.660Z,6.05
2018-12-24T19:47:49.798Z,9.88
2018-12-24T19:50:13.923Z,8.33
2018-12-24T19:52:41.894Z,4.65
2018-12-24T19:55:09.751Z,12.20
2018-12-24T19:57:37.834Z,10.98
2018-12-24T20:00:05.685Z,5.62
2018-12-24T20:02:34.794Z,9.40
2018-12-24T20:05:01.834Z,8.98
2018-12-24T20:07:29.918Z,8.28
2018-12-24T20:09:57.609Z,8.93
2018-12-24T20:12:25.234Z,13.98
2018-12-24T20:14:52.590Z,8.50
2018-12-24T20:17:20.558Z,11.80
2018-12-24T20:19:48.838Z,7.70
2018-12-24T20:22:16.706Z,5.72
2018-12-24T20:24:44.367Z,7.97
2018-12-24T20:27:11.645Z,8.03
2018-12-24T20:29:39.015Z,6.58
2018-12-24T20:32:06.347Z,9.50
2018-12-24T20:34:34.603Z,6.35
2018-12-24T20:37:02.478Z,8.93
2018-12-24T20:39:29.847Z,5.25
2018-12-24T20:41:56.877Z,18.20
2018-12-24T20:44:23.917Z,10.63
2018-12-24T20:46:51.578Z,12.07
2018-12-24T20:49:19.443Z,9.58
2018-12-24T20:51:46.899Z,8.23
2018-12-24T20:54:14.574Z,7.92
2018-12-24T20:56:42.628Z,7.55
2018-12-24T20:59:10.708Z,11.73
2018-12-24T21:01:38.368Z,4.90
2018-12-24T21:04:05.724Z,11.88
2018-12-24T21:06:33.511Z,4.62
2018-12-24T21:09:04.007Z,6.95
2018-12-24T21:11:31.779Z,10.03
2018-12-24T21:13:59.438Z,6.10
2018-12-24T21:16:26.494Z,7.20
2018-12-24T21:18:53.521Z,9.20
2018-12-24T21:21:23.051Z,10.18
2018-12-24T21:23:50.726Z,8.40
2018-12-24T21:26:18.360Z,8.03
2018-12-24T21:28:46.128Z,16.25
2018-12-24T21:31:13.516Z,9.88
2018-12-24T21:33:40.952Z,8.73
2018-12-24T21:36:09.828Z,8.90
2018-12-24T21:38:37.793Z,10.48
2018-12-24T21:41:06.275Z,8.10
2018-12-24T21:43:33.643Z,5.85
2018-12-24T21:46:00.982Z,8.18
2018-12-24T21:48:28.782Z,15.45
2018-12-24T21:50:56.326Z,8.40
2018-12-24T21:53:23.350Z,18.02
2018-12-24T21:55:52.725Z,4.03
2018-12-24T21:58:21.051Z,7.72
2018-12-24T22:00:48.786Z,5.92
2018-12-24T22:03:16.483Z,8.58
2018-12-24T22:05:43.907Z,3.83
2018-12-24T22:08:10.967Z,7.17
2018-12-24T22:10:38.622Z,7.78
2018-12-24T22:13:06.662Z,4.92
2018-12-24T22:15:34.275Z,9.83
2018-12-24T22:18:03.253Z,8.60
2018-12-24T22:20:30.604Z,10.00
2018-12-24T22:22:57.639Z,14.68
2018-12-24T22:25:25.417Z,7.40
2018-12-24T22:27:53.094Z,6.55
2018-12-24T22:30:20.532Z,4.33
2018-12-24T22:32:48.198Z,3.98
2018-12-24T22:35:15.565Z,6.92
2018-12-24T22:37:43.358Z,3.10
2018-12-24T22:40:10.418Z,2.75
2018-12-24T22:42:38.634Z,9.25
2018-12-24T22:45:06.189Z,3.22
2018-12-24T22:47:33.854Z,4.78
2018-12-24T22:50:01.835Z,8.28
2018-12-24T22:52:29.620Z,5.65
2018-12-24T22:54:57.747Z,3.02
2018-12-24T22:57:25.134Z,5.53
2018-12-24T22:59:52.984Z,13.13
2018-12-24T23:02:20.334Z,13.85
2018-12-24T23:04:47.713Z,2.30
2018-12-24T23:07:15.758Z,20.30
2018-12-24T23:09:43.426Z,2.98
2018-12-24T23:12:11.188Z,6.58
2018-12-24T23:14:38.846Z,9.10
2018-12-24T23:17:06.514Z,6.50
2018-12-24T23:19:33.879Z,3.87
2018-12-24T23:22:01.838Z,1.92
2018-12-24T23:24:29.186Z,4.45
2018-12-24T23:26:56.858Z,5.33
2018-12-24T23:29:25.966Z,6.85
2018-12-24T23:31:53.606Z,4.97
2018-12-24T23:34:20.630Z,2.00
2018-12-24T23:36:48.618Z,5.22
2018-12-24T23:39:16.272Z,8.75
2018-12-24T23:41:45.482Z,8.08
2018-12-24T23:44:12.543Z,2.90
2018-12-24T23:46:40.190Z,5.75
2018-12-24T23:49:08.159Z,2.42
2018-12-24T23:51:35.538Z,12.93
2018-12-24T23:54:02.883Z,7.72
2018-12-24T23:56:29.908Z,5.12
2018-12-24T23:58:57.577Z,7.95
